sensor_id;sensor_type;location;lat;lon;timestamp;temperature;humidity
24262;DHT22;12385;51.412;5.540;2023-04-07T00:01:43;9.30;99.90
24262;DHT22;12385;51.412;5.540;2023-04-07T00:04:08;9.30;99.90
24262;DHT22;12385;51.412;5.540;2023-04-07T00:06:34;9.30;99.90
24262;DHT22;12385;51.412;5.540;2023-04-07T00:09:00;9.30;99.90
24262;DHT22;12385;51.412;5.540;2023-04-07T00:11:26;9.30;99.90
24262;DHT22;12385;51.412;5.540;2023-04-07T00:13:51;9.20;99.90
24262;DHT22;12385;51.412;5.540;2023-04-07T00:16:17;9.30;99.90
24262;DHT22;12385;51.412;5.540;2023-04-07T00:18:42;9.30;99.90
24262;DHT22;12385;51.412;5.540;2023-04-07T00:21:08;9.20;99.90
24262;DHT22;12385;51.412;5.540;2023-04-07T00:23:33;9.30;99.90
24262;DHT22;12385;51.412;5.540;2023-04-07T00:25:59;9.30;99.90
24262;DHT22;12385;51.412;5.540;2023-04-07T00:28:25;9.30;99.90
24262;DHT22;12385;51.412;5.540;2023-04-07T00:30:50;9.30;99.90
24262;DHT22;12385;51.412;5.540;2023-04-07T00:33:16;9.30;99.90
24262;DHT22;12385;51.412;5.540;2023-04-07T00:35:42;9.30;99.90
24262;DHT22;12385;51.412;5.540;2023-04-07T00:38:07;9.30;99.90
24262;DHT22;12385;51.412;5.540;2023-04-07T00:40:33;9.20;99.90
24262;DHT22;12385;51.412;5.540;2023-04-07T00:42:58;9.20;99.90
24262;DHT22;12385;51.412;5.540;2023-04-07T00:45:24;9.20;99.90
24262;DHT22;12385;51.412;5.540;2023-04-07T00:47:50;9.20;99.90
24262;DHT22;12385;51.412;5.540;2023-04-07T00:50:15;9.20;99.90
24262;DHT22;12385;51.412;5.540;2023-04-07T00:52:42;9.20;99.90
24262;DHT22;12385;51.412;5.540;2023-04-07T00:55:09;9.20;99.90
24262;DHT22;12385;51.412;5.540;2023-04-07T00:57:35;9.20;99.90
24262;DHT22;12385;51.412;5.540;2023-04-07T01:00:02;9.20;99.90
24262;DHT22;12385;51.412;5.540;2023-04-07T01:02:42;9.10;99.90
24262;DHT22;12385;51.412;5.540;2023-04-07T01:05:22;9.20;99.90
24262;DHT22;12385;51.412;5.540;2023-04-07T01:13:45;9.20;99.90
24262;DHT22;12385;51.412;5.540;2023-04-07T01:16:17;9.20;99.90
24262;DHT22;12385;51.412;5.540;2023-04-07T01:18:47;9.20;99.90
24262;DHT22;12385;51.412;5.540;2023-04-07T01:21:16;9.20;99.90
24262;DHT22;12385;51.412;5.540;2023-04-07T01:24:00;9.20;99.90
24262;DHT22;12385;51.412;5.540;2023-04-07T01:26:32;9.20;99.90
24262;DHT22;12385;51.412;5.540;2023-04-07T01:31:43;9.20;99.90
24262;DHT22;12385;51.412;5.540;2023-04-07T01:34:10;9.20;99.90
24262;DHT22;12385;51.412;5.540;2023-04-07T01:36:37;9.20;99.90
24262;DHT22;12385;51.412;5.540;2023-04-07T01:39:03;9.10;99.90
24262;DHT22;12385;51.412;5.540;2023-04-07T01:41:29;9.10;99.90
24262;DHT22;12385;51.412;5.540;2023-04-07T01:43:55;9.10;99.90
24262;DHT22;12385;51.412;5.540;2023-04-07T01:46:22;9.10;99.90
24262;DHT22;12385;51.412;5.540;2023-04-07T01:48:48;9.10;99.90
24262;DHT22;12385;51.412;5.540;2023-04-07T01:51:15;9.00;99.90
24262;DHT22;12385;51.412;5.540;2023-04-07T01:53:45;9.00;99.90
24262;DHT22;12385;51.412;5.540;2023-04-07T01:56:11;9.00;99.90
24262;DHT22;12385;51.412;5.540;2023-04-07T01:58:37;9.00;99.90
24262;DHT22;12385;51.412;5.540;2023-04-07T02:01:03;8.90;99.90
24262;DHT22;12385;51.412;5.540;2023-04-07T02:06:06;8.90;99.90
24262;DHT22;12385;51.412;5.540;2023-04-07T02:08:35;8.90;99.90
24262;DHT22;12385;51.412;5.540;2023-04-07T02:11:04;8.90;99.90
24262;DHT22;12385;51.412;5.540;2023-04-07T02:13:33;8.90;99.90
24262;DHT22;12385;51.412;5.540;2023-04-07T02:16:00;8.90;99.90
24262;DHT22;12385;51.412;5.540;2023-04-07T02:18:28;8.90;99.90
24262;DHT22;12385;51.412;5.540;2023-04-07T02:20:56;8.90;99.90
24262;DHT22;12385;51.412;5.540;2023-04-07T02:23:23;8.90;99.90
24262;DHT22;12385;51.412;5.540;2023-04-07T02:25:49;8.90;99.90
24262;DHT22;12385;51.412;5.540;2023-04-07T02:28:14;8.80;99.90
24262;DHT22;12385;51.412;5.540;2023-04-07T02:30:40;8.80;99.90
24262;DHT22;12385;51.412;5.540;2023-04-07T02:33:06;8.80;99.90
24262;DHT22;12385;51.412;5.540;2023-04-07T02:35:31;8.80;99.90
24262;DHT22;12385;51.412;5.540;2023-04-07T02:37:57;8.80;99.90
24262;DHT22;12385;51.412;5.540;2023-04-07T02:40:23;8.80;99.90
24262;DHT22;12385;51.412;5.540;2023-04-07T02:42:48;8.80;99.90
24262;DHT22;12385;51.412;5.540;2023-04-07T02:45:14;8.80;99.90
24262;DHT22;12385;51.412;5.540;2023-04-07T02:47:40;8.80;99.90
24262;DHT22;12385;51.412;5.540;2023-04-07T02:50:06;8.80;99.90
24262;DHT22;12385;51.412;5.540;2023-04-07T02:52:32;8.80;99.90
24262;DHT22;12385;51.412;5.540;2023-04-07T02:54:57;8.80;99.90
24262;DHT22;12385;51.412;5.540;2023-04-07T02:57:23;8.80;99.90
24262;DHT22;12385;51.412;5.540;2023-04-07T02:59:49;8.80;99.90
24262;DHT22;12385;51.412;5.540;2023-04-07T03:02:14;8.90;99.90
24262;DHT22;12385;51.412;5.540;2023-04-07T03:04:40;8.80;99.90
24262;DHT22;12385;51.412;5.540;2023-04-07T03:07:06;8.80;99.90
24262;DHT22;12385;51.412;5.540;2023-04-07T03:09:31;8.80;99.90
24262;DHT22;12385;51.412;5.540;2023-04-07T03:11:58;8.80;99.90
24262;DHT22;12385;51.412;5.540;2023-04-07T03:14:24;8.80;99.90
24262;DHT22;12385;51.412;5.540;2023-04-07T03:16:49;8.80;99.90
24262;DHT22;12385;51.412;5.540;2023-04-07T03:19:15;8.70;99.90
24262;DHT22;12385;51.412;5.540;2023-04-07T03:21:41;8.70;99.90
24262;DHT22;12385;51.412;5.540;2023-04-07T03:24:07;8.70;99.90
24262;DHT22;12385;51.412;5.540;2023-04-07T03:26:33;8.70;99.90
24262;DHT22;12385;51.412;5.540;2023-04-07T03:28:58;8.70;99.90
24262;DHT22;12385;51.412;5.540;2023-04-07T03:31:24;8.70;99.90
24262;DHT22;12385;51.412;5.540;2023-04-07T03:33:51;8.70;99.90
24262;DHT22;12385;51.412;5.540;2023-04-07T03:36:17;8.70;99.90
24262;DHT22;12385;51.412;5.540;2023-04-07T03:38:43;8.70;99.90
24262;DHT22;12385;51.412;5.540;2023-04-07T03:41:12;8.70;99.90
24262;DHT22;12385;51.412;5.540;2023-04-07T03:43:38;8.70;99.90
24262;DHT22;12385;51.412;5.540;2023-04-07T03:46:03;8.70;99.90
24262;DHT22;12385;51.412;5.540;2023-04-07T03:48:30;8.80;99.90
24262;DHT22;12385;51.412;5.540;2023-04-07T03:50:56;8.80;99.90
24262;DHT22;12385;51.412;5.540;2023-04-07T03:53:22;8.80;99.90
24262;DHT22;12385;51.412;5.540;2023-04-07T03:55:48;8.90;99.90
24262;DHT22;12385;51.412;5.540;2023-04-07T03:58:15;8.90;99.90
24262;DHT22;12385;51.412;5.540;2023-04-07T04:00:41;8.90;99.90
24262;DHT22;12385;51.412;5.540;2023-04-07T04:03:07;8.90;99.90
24262;DHT22;12385;51.412;5.540;2023-04-07T04:05:33;8.90;99.90
24262;DHT22;12385;51.412;5.540;2023-04-07T04:07:59;8.90;99.90
24262;DHT22;12385;51.412;5.540;2023-04-07T04:10:25;8.90;99.90
24262;DHT22;12385;51.412;5.540;2023-04-07T04:12:51;8.90;99.90
24262;DHT22;12385;51.412;5.540;2023-04-07T04:15:17;8.90;99.90
24262;DHT22;12385;51.412;5.540;2023-04-07T04:17:42;8.80;99.90
24262;DHT22;12385;51.412;5.540;2023-04-07T04:20:08;8.80;99.90
24262;DHT22;12385;51.412;5.540;2023-04-07T04:22:34;8.80;99.90
24262;DHT22;12385;51.412;5.540;2023-04-07T04:25:00;8.80;99.90
24262;DHT22;12385;51.412;5.540;2023-04-07T04:27:27;8.80;99.90
24262;DHT22;12385;51.412;5.540;2023-04-07T04:29:53;8.80;99.90
24262;DHT22;12385;51.412;5.540;2023-04-07T04:32:19;8.80;99.90
24262;DHT22;12385;51.412;5.540;2023-04-07T04:34:45;8.80;99.90
24262;DHT22;12385;51.412;5.540;2023-04-07T04:37:14;8.80;99.90
24262;DHT22;12385;51.412;5.540;2023-04-07T04:39:40;8.80;99.90
24262;DHT22;12385;51.412;5.540;2023-04-07T04:42:08;8.80;99.90
24262;DHT22;12385;51.412;5.540;2023-04-07T04:44:34;8.80;99.90
24262;DHT22;12385;51.412;5.540;2023-04-07T04:47:02;8.70;99.90
24262;DHT22;12385;51.412;5.540;2023-04-07T04:49:28;8.70;99.90
24262;DHT22;12385;51.412;5.540;2023-04-07T04:51:53;8.70;99.90
24262;DHT22;12385;51.412;5.540;2023-04-07T04:54:19;8.70;99.90
24262;DHT22;12385;51.412;5.540;2023-04-07T04:56:44;8.70;99.90
24262;DHT22;12385;51.412;5.540;2023-04-07T04:59:10;8.60;99.90
24262;DHT22;12385;51.412;5.540;2023-04-07T05:01:36;8.60;99.90
24262;DHT22;12385;51.412;5.540;2023-04-07T05:04:03;8.60;99.90
24262;DHT22;12385;51.412;5.540;2023-04-07T05:06:28;8.60;99.90
24262;DHT22;12385;51.412;5.540;2023-04-07T05:08:54;8.60;99.90
24262;DHT22;12385;51.412;5.540;2023-04-07T05:11:20;8.60;99.90
24262;DHT22;12385;51.412;5.540;2023-04-07T05:13:46;8.60;99.90
24262;DHT22;12385;51.412;5.540;2023-04-07T05:16:12;8.70;99.90
24262;DHT22;12385;51.412;5.540;2023-04-07T05:18:38;8.60;99.90
24262;DHT22;12385;51.412;5.540;2023-04-07T05:21:03;8.60;99.90
24262;DHT22;12385;51.412;5.540;2023-04-07T05:23:29;8.60;99.90
24262;DHT22;12385;51.412;5.540;2023-04-07T05:25:55;8.60;99.90
24262;DHT22;12385;51.412;5.540;2023-04-07T05:28:21;8.60;99.90
24262;DHT22;12385;51.412;5.540;2023-04-07T05:30:47;8.60;99.90
24262;DHT22;12385;51.412;5.540;2023-04-07T05:33:13;8.60;99.90
24262;DHT22;12385;51.412;5.540;2023-04-07T05:35:39;8.60;99.90
24262;DHT22;12385;51.412;5.540;2023-04-07T05:38:05;8.60;99.90
24262;DHT22;12385;51.412;5.540;2023-04-07T05:40:30;8.70;99.90
24262;DHT22;12385;51.412;5.540;2023-04-07T05:42:56;8.70;99.90
24262;DHT22;12385;51.412;5.540;2023-04-07T05:45:22;8.70;99.90
24262;DHT22;12385;51.412;5.540;2023-04-07T05:47:48;8.70;99.90
24262;DHT22;12385;51.412;5.540;2023-04-07T05:50:16;8.70;99.90
24262;DHT22;12385;51.412;5.540;2023-04-07T05:52:41;8.70;99.90
24262;DHT22;12385;51.412;5.540;2023-04-07T05:55:07;8.70;99.90
24262;DHT22;12385;51.412;5.540;2023-04-07T05:57:33;8.70;99.90
24262;DHT22;12385;51.412;5.540;2023-04-07T05:59:59;8.70;99.90
24262;DHT22;12385;51.412;5.540;2023-04-07T06:02:25;8.70;99.90
24262;DHT22;12385;51.412;5.540;2023-04-07T06:04:51;8.70;99.90
24262;DHT22;12385;51.412;5.540;2023-04-07T06:07:17;8.80;99.90
24262;DHT22;12385;51.412;5.540;2023-04-07T06:09:42;8.80;99.90
24262;DHT22;12385;51.412;5.540;2023-04-07T06:12:08;8.80;99.90
24262;DHT22;12385;51.412;5.540;2023-04-07T06:14:36;8.80;99.90
24262;DHT22;12385;51.412;5.540;2023-04-07T06:17:02;8.90;99.90
24262;DHT22;12385;51.412;5.540;2023-04-07T06:19:27;8.80;99.90
24262;DHT22;12385;51.412;5.540;2023-04-07T06:21:53;8.90;99.90
24262;DHT22;12385;51.412;5.540;2023-04-07T06:24:19;8.90;99.90
24262;DHT22;12385;51.412;5.540;2023-04-07T06:26:47;8.90;99.90
24262;DHT22;12385;51.412;5.540;2023-04-07T06:29:13;8.90;99.90
24262;DHT22;12385;51.412;5.540;2023-04-07T06:31:42;8.90;99.90
24262;DHT22;12385;51.412;5.540;2023-04-07T06:34:08;8.90;99.90
24262;DHT22;12385;51.412;5.540;2023-04-07T06:36:33;8.90;99.90
24262;DHT22;12385;51.412;5.540;2023-04-07T06:38:59;8.90;99.90
24262;DHT22;12385;51.412;5.540;2023-04-07T06:41:25;9.00;99.90
24262;DHT22;12385;51.412;5.540;2023-04-07T06:43:50;9.00;99.90
24262;DHT22;12385;51.412;5.540;2023-04-07T06:46:17;9.00;99.90
24262;DHT22;12385;51.412;5.540;2023-04-07T06:48:43;9.00;99.90
24262;DHT22;12385;51.412;5.540;2023-04-07T06:51:09;9.00;99.90
24262;DHT22;12385;51.412;5.540;2023-04-07T06:53:35;9.10;99.90
24262;DHT22;12385;51.412;5.540;2023-04-07T06:56:08;9.10;99.90
24262;DHT22;12385;51.412;5.540;2023-04-07T06:58:35;9.10;99.90
24262;DHT22;12385;51.412;5.540;2023-04-07T07:01:02;9.10;99.90
24262;DHT22;12385;51.412;5.540;2023-04-07T07:03:28;9.10;99.90
24262;DHT22;12385;51.412;5.540;2023-04-07T07:05:54;9.20;99.90
24262;DHT22;12385;51.412;5.540;2023-04-07T07:08:24;9.20;99.90
24262;DHT22;12385;51.412;5.540;2023-04-07T07:10:50;9.20;99.90
24262;DHT22;12385;51.412;5.540;2023-04-07T07:13:17;9.30;99.90
24262;DHT22;12385;51.412;5.540;2023-04-07T07:15:44;9.30;99.90
24262;DHT22;12385;51.412;5.540;2023-04-07T07:18:10;9.30;99.90
24262;DHT22;12385;51.412;5.540;2023-04-07T07:20:36;9.40;99.90
24262;DHT22;12385;51.412;5.540;2023-04-07T07:23:04;9.40;99.90
24262;DHT22;12385;51.412;5.540;2023-04-07T07:25:30;9.40;99.90
24262;DHT22;12385;51.412;5.540;2023-04-07T07:27:56;9.40;99.90
24262;DHT22;12385;51.412;5.540;2023-04-07T07:30:22;9.50;99.90
24262;DHT22;12385;51.412;5.540;2023-04-07T07:32:51;9.50;99.90
24262;DHT22;12385;51.412;5.540;2023-04-07T07:35:18;9.60;99.90
24262;DHT22;12385;51.412;5.540;2023-04-07T07:37:44;9.60;99.90
24262;DHT22;12385;51.412;5.540;2023-04-07T07:40:13;9.60;99.90
24262;DHT22;12385;51.412;5.540;2023-04-07T07:42:38;9.70;99.90
24262;DHT22;12385;51.412;5.540;2023-04-07T07:45:05;9.80;99.90
24262;DHT22;12385;51.412;5.540;2023-04-07T07:47:31;9.80;99.90
24262;DHT22;12385;51.412;5.540;2023-04-07T07:49:57;9.80;99.90
24262;DHT22;12385;51.412;5.540;2023-04-07T07:52:23;9.90;99.90
24262;DHT22;12385;51.412;5.540;2023-04-07T07:54:50;10.00;99.90
24262;DHT22;12385;51.412;5.540;2023-04-07T07:57:16;10.00;99.90
24262;DHT22;12385;51.412;5.540;2023-04-07T07:59:42;10.00;99.90
24262;DHT22;12385;51.412;5.540;2023-04-07T08:02:09;10.10;99.90
24262;DHT22;12385;51.412;5.540;2023-04-07T08:04:36;10.10;99.90
24262;DHT22;12385;51.412;5.540;2023-04-07T08:07:03;10.10;99.90
24262;DHT22;12385;51.412;5.540;2023-04-07T08:09:28;10.10;99.90
24262;DHT22;12385;51.412;5.540;2023-04-07T08:11:54;10.10;99.90
24262;DHT22;12385;51.412;5.540;2023-04-07T08:14:20;10.00;99.90
24262;DHT22;12385;51.412;5.540;2023-04-07T08:16:47;10.10;99.90
24262;DHT22;12385;51.412;5.540;2023-04-07T08:19:13;10.10;99.90
24262;DHT22;12385;51.412;5.540;2023-04-07T08:21:38;10.10;99.90
24262;DHT22;12385;51.412;5.540;2023-04-07T08:24:05;10.20;99.90
24262;DHT22;12385;51.412;5.540;2023-04-07T08:26:31;10.20;99.90
24262;DHT22;12385;51.412;5.540;2023-04-07T08:28:56;10.20;99.90
24262;DHT22;12385;51.412;5.540;2023-04-07T08:31:25;10.20;99.90
24262;DHT22;12385;51.412;5.540;2023-04-07T08:33:50;10.20;99.90
24262;DHT22;12385;51.412;5.540;2023-04-07T08:36:21;10.20;99.90
24262;DHT22;12385;51.412;5.540;2023-04-07T08:38:47;10.20;99.90
24262;DHT22;12385;51.412;5.540;2023-04-07T08:41:17;10.20;99.90
24262;DHT22;12385;51.412;5.540;2023-04-07T08:43:46;10.30;99.90
24262;DHT22;12385;51.412;5.540;2023-04-07T08:46:14;10.30;99.90
24262;DHT22;12385;51.412;5.540;2023-04-07T08:48:43;10.30;99.90
24262;DHT22;12385;51.412;5.540;2023-04-07T08:51:09;10.30;99.90
24262;DHT22;12385;51.412;5.540;2023-04-07T08:53:48;10.40;99.90
24262;DHT22;12385;51.412;5.540;2023-04-07T08:56:17;10.50;99.90
24262;DHT22;12385;51.412;5.540;2023-04-07T08:58:45;10.50;99.90
24262;DHT22;12385;51.412;5.540;2023-04-07T09:01:11;10.50;99.90
24262;DHT22;12385;51.412;5.540;2023-04-07T09:03:37;10.50;99.90
24262;DHT22;12385;51.412;5.540;2023-04-07T09:06:03;10.50;99.90
24262;DHT22;12385;51.412;5.540;2023-04-07T09:08:29;10.60;99.90
24262;DHT22;12385;51.412;5.540;2023-04-07T09:10:58;10.60;99.90
24262;DHT22;12385;51.412;5.540;2023-04-07T09:13:24;10.70;99.90
24262;DHT22;12385;51.412;5.540;2023-04-07T09:15:51;10.70;99.90
24262;DHT22;12385;51.412;5.540;2023-04-07T09:18:16;10.80;99.90
24262;DHT22;12385;51.412;5.540;2023-04-07T09:21:12;10.80;99.90
24262;DHT22;12385;51.412;5.540;2023-04-07T09:23:40;10.70;99.90
24262;DHT22;12385;51.412;5.540;2023-04-07T09:26:24;10.60;99.90
24262;DHT22;12385;51.412;5.540;2023-04-07T09:28:59;10.60;99.90
24262;DHT22;12385;51.412;5.540;2023-04-07T09:31:59;10.60;99.90
24262;DHT22;12385;51.412;5.540;2023-04-07T09:34:27;10.60;99.90
24262;DHT22;12385;51.412;5.540;2023-04-07T09:36:56;10.60;99.90
24262;DHT22;12385;51.412;5.540;2023-04-07T09:39:23;10.70;99.90
24262;DHT22;12385;51.412;5.540;2023-04-07T09:41:49;10.70;99.90
24262;DHT22;12385;51.412;5.540;2023-04-07T09:44:21;10.80;99.90
24262;DHT22;12385;51.412;5.540;2023-04-07T09:46:55;10.90;99.90
24262;DHT22;12385;51.412;5.540;2023-04-07T09:49:21;11.00;99.90
24262;DHT22;12385;51.412;5.540;2023-04-07T09:51:55;11.10;99.90
24262;DHT22;12385;51.412;5.540;2023-04-07T09:54:32;11.30;99.90
24262;DHT22;12385;51.412;5.540;2023-04-07T09:56:59;11.30;99.90
24262;DHT22;12385;51.412;5.540;2023-04-07T09:59:34;11.40;99.90
24262;DHT22;12385;51.412;5.540;2023-04-07T10:02:00;11.40;99.90
24262;DHT22;12385;51.412;5.540;2023-04-07T10:04:26;11.40;99.90
24262;DHT22;12385;51.412;5.540;2023-04-07T10:06:58;11.40;99.90
24262;DHT22;12385;51.412;5.540;2023-04-07T10:09:26;11.40;99.90
24262;DHT22;12385;51.412;5.540;2023-04-07T10:11:54;11.40;99.90
24262;DHT22;12385;51.412;5.540;2023-04-07T10:14:30;11.50;99.90
24262;DHT22;12385;51.412;5.540;2023-04-07T10:16:56;11.60;99.90
24262;DHT22;12385;51.412;5.540;2023-04-07T10:19:23;11.80;99.90
24262;DHT22;12385;51.412;5.540;2023-04-07T10:21:52;11.80;99.90
24262;DHT22;12385;51.412;5.540;2023-04-07T10:24:43;11.80;99.90
24262;DHT22;12385;51.412;5.540;2023-04-07T10:27:15;11.80;99.90
24262;DHT22;12385;51.412;5.540;2023-04-07T10:29:45;11.90;99.90
24262;DHT22;12385;51.412;5.540;2023-04-07T10:32:11;11.90;99.90
24262;DHT22;12385;51.412;5.540;2023-04-07T10:37:13;11.80;99.90
24262;DHT22;12385;51.412;5.540;2023-04-07T10:39:42;11.70;99.90
24262;DHT22;12385;51.412;5.540;2023-04-07T10:45:06;11.50;99.90
24262;DHT22;12385;51.412;5.540;2023-04-07T10:47:32;11.30;99.90
24262;DHT22;12385;51.412;5.540;2023-04-07T10:50:22;11.30;99.90
24262;DHT22;12385;51.412;5.540;2023-04-07T10:53:03;11.20;99.90
24262;DHT22;12385;51.412;5.540;2023-04-07T10:55:31;11.20;99.90
24262;DHT22;12385;51.412;5.540;2023-04-07T10:58:19;11.10;99.90
24262;DHT22;12385;51.412;5.540;2023-04-07T11:03:41;11.20;99.90
24262;DHT22;12385;51.412;5.540;2023-04-07T11:06:09;11.20;99.90
24262;DHT22;12385;51.412;5.540;2023-04-07T11:08:36;11.30;99.90
24262;DHT22;12385;51.412;5.540;2023-04-07T11:11:03;11.40;99.90
24262;DHT22;12385;51.412;5.540;2023-04-07T11:13:47;11.50;99.90
24262;DHT22;12385;51.412;5.540;2023-04-07T11:16:14;11.70;99.90
24262;DHT22;12385;51.412;5.540;2023-04-07T11:18:41;11.90;99.90
24262;DHT22;12385;51.412;5.540;2023-04-07T11:21:07;12.00;99.90
24262;DHT22;12385;51.412;5.540;2023-04-07T11:23:44;12.10;99.90
24262;DHT22;12385;51.412;5.540;2023-04-07T11:26:12;12.20;99.90
24262;DHT22;12385;51.412;5.540;2023-04-07T11:28:48;12.30;99.90
24262;DHT22;12385;51.412;5.540;2023-04-07T11:31:26;12.30;99.90
24262;DHT22;12385;51.412;5.540;2023-04-07T11:33:56;12.20;99.90
24262;DHT22;12385;51.412;5.540;2023-04-07T11:36:46;12.10;99.90
24262;DHT22;12385;51.412;5.540;2023-04-07T11:39:19;12.00;99.90
24262;DHT22;12385;51.412;5.540;2023-04-07T11:41:47;12.00;99.90
24262;DHT22;12385;51.412;5.540;2023-04-07T11:44:13;12.10;99.90
24262;DHT22;12385;51.412;5.540;2023-04-07T11:46:55;12.20;99.90
24262;DHT22;12385;51.412;5.540;2023-04-07T11:49:22;12.40;99.90
24262;DHT22;12385;51.412;5.540;2023-04-07T11:52:03;12.50;99.90
24262;DHT22;12385;51.412;5.540;2023-04-07T11:54:46;12.70;99.90
24262;DHT22;12385;51.412;5.540;2023-04-07T11:57:12;12.80;99.90
24262;DHT22;12385;51.412;5.540;2023-04-07T11:59:39;12.90;99.90
24262;DHT22;12385;51.412;5.540;2023-04-07T12:02:05;12.90;99.90
24262;DHT22;12385;51.412;5.540;2023-04-07T12:04:32;12.90;99.90
24262;DHT22;12385;51.412;5.540;2023-04-07T12:07:11;12.90;99.90
24262;DHT22;12385;51.412;5.540;2023-04-07T12:09:36;12.90;99.90
24262;DHT22;12385;51.412;5.540;2023-04-07T12:12:04;12.90;99.90
24262;DHT22;12385;51.412;5.540;2023-04-07T12:14:31;12.90;99.90
24262;DHT22;12385;51.412;5.540;2023-04-07T12:16:57;12.90;99.90
24262;DHT22;12385;51.412;5.540;2023-04-07T12:19:27;12.90;99.90
24262;DHT22;12385;51.412;5.540;2023-04-07T12:21:54;12.90;99.90
24262;DHT22;12385;51.412;5.540;2023-04-07T12:24:20;12.90;99.90
24262;DHT22;12385;51.412;5.540;2023-04-07T12:26:46;12.90;99.90
24262;DHT22;12385;51.412;5.540;2023-04-07T12:29:12;12.80;99.90
24262;DHT22;12385;51.412;5.540;2023-04-07T12:31:38;12.80;99.90
24262;DHT22;12385;51.412;5.540;2023-04-07T12:34:04;12.80;99.90
24262;DHT22;12385;51.412;5.540;2023-04-07T12:36:30;12.80;99.90
24262;DHT22;12385;51.412;5.540;2023-04-07T12:38:56;12.80;99.90
24262;DHT22;12385;51.412;5.540;2023-04-07T12:41:22;12.70;99.90
24262;DHT22;12385;51.412;5.540;2023-04-07T12:43:48;12.60;99.90
24262;DHT22;12385;51.412;5.540;2023-04-07T12:46:15;12.50;99.90
24262;DHT22;12385;51.412;5.540;2023-04-07T12:48:41;12.30;99.90
24262;DHT22;12385;51.412;5.540;2023-04-07T12:51:06;12.30;99.90
24262;DHT22;12385;51.412;5.540;2023-04-07T12:53:32;12.30;99.90
24262;DHT22;12385;51.412;5.540;2023-04-07T12:55:58;12.40;99.90
24262;DHT22;12385;51.412;5.540;2023-04-07T12:58:24;12.40;99.90
24262;DHT22;12385;51.412;5.540;2023-04-07T13:00:51;12.40;99.90
24262;DHT22;12385;51.412;5.540;2023-04-07T13:03:18;12.40;99.90
24262;DHT22;12385;51.412;5.540;2023-04-07T13:05:43;12.40;99.90
24262;DHT22;12385;51.412;5.540;2023-04-07T13:08:10;12.40;99.90
24262;DHT22;12385;51.412;5.540;2023-04-07T13:10:37;12.40;99.90
24262;DHT22;12385;51.412;5.540;2023-04-07T13:13:02;12.50;99.90
24262;DHT22;12385;51.412;5.540;2023-04-07T13:15:28;12.40;99.90
24262;DHT22;12385;51.412;5.540;2023-04-07T13:17:53;12.30;99.90
24262;DHT22;12385;51.412;5.540;2023-04-07T13:20:20;12.30;99.90
24262;DHT22;12385;51.412;5.540;2023-04-07T13:22:46;12.20;99.90
24262;DHT22;12385;51.412;5.540;2023-04-07T13:25:12;12.20;99.90
24262;DHT22;12385;51.412;5.540;2023-04-07T13:27:38;12.20;99.90
24262;DHT22;12385;51.412;5.540;2023-04-07T13:30:04;12.10;99.90
24262;DHT22;12385;51.412;5.540;2023-04-07T13:32:30;12.10;99.90
24262;DHT22;12385;51.412;5.540;2023-04-07T13:34:56;12.00;99.90
24262;DHT22;12385;51.412;5.540;2023-04-07T13:37:22;12.00;99.90
24262;DHT22;12385;51.412;5.540;2023-04-07T13:39:48;12.00;99.90
24262;DHT22;12385;51.412;5.540;2023-04-07T13:42:13;12.00;99.90
24262;DHT22;12385;51.412;5.540;2023-04-07T13:44:41;12.00;99.90
24262;DHT22;12385;51.412;5.540;2023-04-07T13:47:10;12.00;99.90
24262;DHT22;12385;51.412;5.540;2023-04-07T13:49:35;12.10;99.90
24262;DHT22;12385;51.412;5.540;2023-04-07T13:52:01;12.10;99.90
24262;DHT22;12385;51.412;5.540;2023-04-07T13:54:26;12.00;99.90
24262;DHT22;12385;51.412;5.540;2023-04-07T13:56:52;12.00;99.90
24262;DHT22;12385;51.412;5.540;2023-04-07T13:59:18;12.00;99.90
24262;DHT22;12385;51.412;5.540;2023-04-07T14:01:43;11.90;99.90
24262;DHT22;12385;51.412;5.540;2023-04-07T14:04:09;11.80;99.90
24262;DHT22;12385;51.412;5.540;2023-04-07T14:06:35;11.80;99.90
24262;DHT22;12385;51.412;5.540;2023-04-07T14:09:01;11.80;99.90
24262;DHT22;12385;51.412;5.540;2023-04-07T14:11:28;11.80;99.90
24262;DHT22;12385;51.412;5.540;2023-04-07T14:13:54;11.90;99.90
24262;DHT22;12385;51.412;5.540;2023-04-07T14:16:21;11.90;99.90
24262;DHT22;12385;51.412;5.540;2023-04-07T14:18:47;11.90;99.90
24262;DHT22;12385;51.412;5.540;2023-04-07T14:21:13;12.00;99.90
24262;DHT22;12385;51.412;5.540;2023-04-07T14:23:40;11.90;99.90
24262;DHT22;12385;51.412;5.540;2023-04-07T14:26:10;12.00;99.90
24262;DHT22;12385;51.412;5.540;2023-04-07T14:28:36;12.00;99.90
24262;DHT22;12385;51.412;5.540;2023-04-07T14:31:02;12.00;99.90
24262;DHT22;12385;51.412;5.540;2023-04-07T14:33:28;12.00;99.90
24262;DHT22;12385;51.412;5.540;2023-04-07T14:35:53;11.90;99.90
24262;DHT22;12385;51.412;5.540;2023-04-07T14:38:19;11.90;99.90
24262;DHT22;12385;51.412;5.540;2023-04-07T14:40:48;11.90;99.90
24262;DHT22;12385;51.412;5.540;2023-04-07T14:43:14;11.80;99.90
24262;DHT22;12385;51.412;5.540;2023-04-07T14:45:40;11.90;99.90
24262;DHT22;12385;51.412;5.540;2023-04-07T14:48:05;11.90;99.90
24262;DHT22;12385;51.412;5.540;2023-04-07T14:50:32;11.90;99.90
24262;DHT22;12385;51.412;5.540;2023-04-07T14:52:58;11.90;99.90
24262;DHT22;12385;51.412;5.540;2023-04-07T14:55:24;11.90;99.90
24262;DHT22;12385;51.412;5.540;2023-04-07T14:57:50;11.80;99.90
24262;DHT22;12385;51.412;5.540;2023-04-07T15:00:15;11.80;99.90
24262;DHT22;12385;51.412;5.540;2023-04-07T15:02:41;11.80;99.90
24262;DHT22;12385;51.412;5.540;2023-04-07T15:05:08;11.80;99.90
24262;DHT22;12385;51.412;5.540;2023-04-07T15:07:34;11.70;99.90
24262;DHT22;12385;51.412;5.540;2023-04-07T15:10:00;11.80;99.90
24262;DHT22;12385;51.412;5.540;2023-04-07T15:12:27;11.70;99.90
24262;DHT22;12385;51.412;5.540;2023-04-07T15:14:56;11.80;99.90
24262;DHT22;12385;51.412;5.540;2023-04-07T15:17:21;11.70;99.90
24262;DHT22;12385;51.412;5.540;2023-04-07T15:19:47;11.70;99.90
24262;DHT22;12385;51.412;5.540;2023-04-07T15:22:13;11.70;99.90
24262;DHT22;12385;51.412;5.540;2023-04-07T15:24:38;11.70;99.90
24262;DHT22;12385;51.412;5.540;2023-04-07T15:27:04;11.70;99.90
24262;DHT22;12385;51.412;5.540;2023-04-07T15:29:30;11.70;99.90
24262;DHT22;12385;51.412;5.540;2023-04-07T15:31:57;11.70;99.90
24262;DHT22;12385;51.412;5.540;2023-04-07T15:34:23;11.60;99.90
24262;DHT22;12385;51.412;5.540;2023-04-07T15:36:49;11.60;99.90
24262;DHT22;12385;51.412;5.540;2023-04-07T15:39:15;11.60;99.90
24262;DHT22;12385;51.412;5.540;2023-04-07T15:41:41;11.50;99.90
24262;DHT22;12385;51.412;5.540;2023-04-07T15:44:07;11.50;99.90
24262;DHT22;12385;51.412;5.540;2023-04-07T15:46:32;11.40;99.90
24262;DHT22;12385;51.412;5.540;2023-04-07T15:48:58;11.40;99.90
24262;DHT22;12385;51.412;5.540;2023-04-07T15:51:24;11.40;99.90
24262;DHT22;12385;51.412;5.540;2023-04-07T15:53:51;11.40;99.90
24262;DHT22;12385;51.412;5.540;2023-04-07T15:56:17;11.40;99.90
24262;DHT22;12385;51.412;5.540;2023-04-07T15:58:42;11.40;99.90